Time;durP1;ratioP1;P1;durP2;ratioP2;P2;SDS_P1;SDS_P2;PMS_P1;PMS_P2;Temp;Humidity;BMP_temperature;BMP_pressure;BME280_temperature;BME280_humidity;BME280_pressure;Samples;Min_cycle;Max_cycle;Signal;HPM_P1;HPM_P2
2023/10/23 00:00:02;;;;;;;1.13;0.73;;;12.20;99.90;;;;;;5004069;28;20558;-69
2023/10/23 00:02:28;;;;;;;3.53;0.63;;;12.20;99.90;;;;;;4996418;28;20084;-69
2023/10/23 00:04:53;;;;;;;3.88;0.70;;;12.20;99.90;;;;;;5014466;28;20021;-70
2023/10/23 00:07:19;;;;;;;1.50;0.80;;;12.30;99.90;;;;;;5013148;28;20037;-70
2023/10/23 00:09:44;;;;;;;1.77;0.57;;;12.40;99.90;;;;;;5010085;28;20076;-70
2023/10/23 00:12:10;;;;;;;2.13;1.02;;;12.40;99.90;;;;;;5011085;28;20034;-70
2023/10/23 00:14:36;;;;;;;2.97;0.88;;;12.30;99.90;;;;;;5009478;28;20080;-70
2023/10/23 00:17:01;;;;;;;2.75;1.92;;;12.20;99.90;;;;;;5012240;28;20034;-70
2023/10/23 00:19:27;;;;;;;1.30;1.00;;;12.10;99.90;;;;;;5011105;28;20091;-70
2023/10/23 00:21:53;;;;;;;1.95;1.02;;;12.10;99.90;;;;;;5006425;28;20029;-70
2023/10/23 00:24:20;;;;;;;2.30;0.70;;;12.10;99.90;;;;;;5013082;28;20124;-69
2023/10/23 00:26:45;;;;;;;3.20;0.90;;;12.00;99.90;;;;;;5002895;28;20214;-70
2023/10/23 00:29:11;;;;;;;4.97;1.13;;;12.00;99.90;;;;;;5009217;28;20044;-69
2023/10/23 00:31:37;;;;;;;2.15;0.60;;;11.90;99.90;;;;;;5011176;28;20053;-69
2023/10/23 00:34:02;;;;;;;2.75;0.60;;;11.90;99.90;;;;;;5007808;28;20620;-69
2023/10/23 00:36:28;;;;;;;3.78;2.70;;;11.90;99.90;;;;;;5010572;28;20033;-69
2023/10/23 00:38:54;;;;;;;0.93;0.82;;;11.80;99.90;;;;;;5012421;28;20526;-69
2023/10/23 00:41:19;;;;;;;2.25;1.70;;;11.60;99.90;;;;;;5011231;28;20037;-69
2023/10/23 00:43:45;;;;;;;3.03;1.77;;;11.50;99.90;;;;;;5016761;28;20037;-69
2023/10/23 00:46:14;;;;;;;1.90;0.50;;;11.50;99.90;;;;;;5006729;28;20080;-69
2023/10/23 00:48:40;;;;;;;1.15;0.50;;;11.50;99.90;;;;;;5004452;28;20524;-69
2023/10/23 00:51:07;;;;;;;1.00;0.55;;;11.50;99.90;;;;;;5006871;28;20033;-69
2023/10/23 00:53:35;;;;;;;4.22;0.50;;;11.50;99.90;;;;;;5008681;28;20450;-69
2023/10/23 00:56:04;;;;;;;2.22;0.45;;;11.50;99.90;;;;;;5010502;28;20037;-69
2023/10/23 00:58:33;;;;;;;5.18;1.65;;;11.50;99.90;;;;;;5016740;28;20050;-69
2023/10/23 01:01:00;;;;;;;2.65;1.00;;;11.40;99.90;;;;;;5009794;28;20103;-69
2023/10/23 01:03:26;;;;;;;4.88;2.53;;;11.40;99.90;;;;;;5006558;28;20083;-69
2023/10/23 01:05:52;;;;;;;2.17;0.43;;;11.30;99.90;;;;;;5012343;28;20148;-70
2023/10/23 01:08:18;;;;;;;0.85;0.60;;;11.30;99.90;;;;;;5009510;28;20042;-70
2023/10/23 01:10:45;;;;;;;2.80;1.02;;;11.30;99.90;;;;;;5010292;28;20114;-70
2023/10/23 01:13:11;;;;;;;8.07;1.00;;;11.40;99.90;;;;;;5004946;28;20038;-70
2023/10/23 01:15:37;;;;;;;1.85;0.90;;;11.40;99.90;;;;;;5009485;28;20084;-70
2023/10/23 01:18:04;;;;;;;1.20;1.10;;;11.40;99.90;;;;;;5011795;28;20108;-70
2023/10/23 01:20:30;;;;;;;3.25;1.20;;;11.40;99.90;;;;;;5011750;28;20121;-69
2023/10/23 01:22:57;;;;;;;1.80;0.90;;;11.40;99.90;;;;;;5002943;28;20085;-69
2023/10/23 01:25:23;;;;;;;0.55;0.55;;;11.40;99.90;;;;;;5014622;28;20030;-68
2023/10/23 01:27:48;;;;;;;2.90;0.77;;;11.30;99.90;;;;;;5010436;28;20815;-70
2023/10/23 01:30:14;;;;;;;0.77;0.60;;;11.20;99.90;;;;;;5011426;28;20059;-69
2023/10/23 01:32:40;;;;;;;3.70;0.60;;;11.10;99.90;;;;;;5011384;28;20037;-69
2023/10/23 01:35:05;;;;;;;1.63;0.80;;;11.00;99.90;;;;;;5013812;28;20030;-69
2023/10/23 01:37:31;;;;;;;1.20;0.90;;;11.00;99.90;;;;;;5011317;28;20038;-69
2023/10/23 01:39:57;;;;;;;1.00;0.82;;;11.00;99.90;;;;;;5013082;28;21444;-70
2023/10/23 01:42:26;;;;;;;2.40;0.90;;;11.00;99.90;;;;;;5009686;28;20033;-69
2023/10/23 01:44:52;;;;;;;2.13;0.80;;;10.90;99.90;;;;;;5008741;28;20029;-70
2023/10/23 01:47:17;;;;;;;1.48;0.75;;;10.90;99.90;;;;;;5007653;28;20071;-68
2023/10/23 01:49:43;;;;;;;0.40;0.40;;;10.90;99.90;;;;;;5007482;28;20068;-70
2023/10/23 01:52:09;;;;;;;2.30;0.65;;;10.90;99.90;;;;;;5010559;28;20037;-70
2023/10/23 01:54:34;;;;;;;1.10;0.52;;;11.00;99.90;;;;;;4997992;28;20043;-69
2023/10/23 01:57:00;;;;;;;3.65;0.70;;;11.00;99.90;;;;;;5006724;28;20395;-69
2023/10/23 01:59:26;;;;;;;7.05;0.93;;;11.00;99.90;;;;;;5005522;28;20172;-69
2023/10/23 02:01:51;;;;;;;1.98;0.52;;;10.90;99.90;;;;;;4990868;28;20573;-68
2023/10/23 02:04:17;;;;;;;2.30;0.50;;;10.80;99.90;;;;;;4997934;28;20066;-68
2023/10/23 02:06:43;;;;;;;1.05;0.80;;;10.70;99.90;;;;;;4990278;28;20072;-68
2023/10/23 02:09:08;;;;;;;1.30;0.55;;;10.70;99.90;;;;;;4994936;28;20041;-68
2023/10/23 02:11:34;;;;;;;0.68;0.50;;;10.70;99.90;;;;;;4992615;28;20038;-68
2023/10/23 02:13:59;;;;;;;3.22;0.52;;;10.70;99.90;;;;;;4990209;28;20047;-68
2023/10/23 02:16:25;;;;;;;3.40;0.60;;;10.70;99.90;;;;;;4978891;28;20122;-68
2023/10/23 02:18:51;;;;;;;1.42;0.65;;;10.70;99.90;;;;;;4981080;28;20096;-68
2023/10/23 02:21:16;;;;;;;0.50;0.50;;;10.70;99.90;;;;;;4981170;28;20117;-68
2023/10/23 02:23:42;;;;;;;3.15;0.70;;;10.60;99.90;;;;;;4976423;28;20589;-68
2023/10/23 02:26:08;;;;;;;0.70;0.50;;;10.60;99.90;;;;;;4982501;28;20880;-68
2023/10/23 02:28:33;;;;;;;3.33;0.68;;;10.60;99.90;;;;;;4987296;28;20042;-68
2023/10/23 02:31:05;;;;;;;0.55;0.50;;;10.40;99.90;;;;;;4983862;28;20188;-68
2023/10/23 02:33:30;;;;;;;1.33;0.73;;;10.30;99.90;;;;;;4983140;28;20033;-68
2023/10/23 02:35:56;;;;;;;0.50;0.50;;;10.30;99.90;;;;;;4984017;28;20044;-68
2023/10/23 02:38:22;;;;;;;0.70;0.70;;;10.30;99.90;;;;;;4987060;28;20042;-68
2023/10/23 02:40:54;;;;;;;0.55;0.50;;;10.30;99.90;;;;;;4978833;28;20046;-71
2023/10/23 02:43:20;;;;;;;0.38;0.38;;;10.30;99.90;;;;;;4992460;28;20057;-70
2023/10/23 02:45:47;;;;;;;0.57;0.50;;;10.30;99.90;;;;;;4988684;28;20727;-70
2023/10/23 02:48:13;;;;;;;1.48;0.93;;;10.30;99.90;;;;;;4987703;28;20042;-70
2023/10/23 02:50:39;;;;;;;1.08;0.60;;;10.30;99.90;;;;;;4988198;28;20517;-70
2023/10/23 02:53:06;;;;;;;1.45;0.30;;;10.30;99.90;;;;;;4976801;28;20047;-70
2023/10/23 02:55:32;;;;;;;0.43;0.40;;;10.30;99.90;;;;;;4990059;28;20137;-70
2023/10/23 02:57:58;;;;;;;4.47;0.75;;;10.40;99.90;;;;;;4990136;28;20049;-70
2023/10/23 03:00:23;;;;;;;1.00;0.60;;;10.40;99.90;;;;;;4990468;28;20046;-70
2023/10/23 03:02:49;;;;;;;1.00;0.73;;;10.40;99.90;;;;;;4991195;28;20101;-70
2023/10/23 03:05:16;;;;;;;2.13;0.60;;;10.40;99.90;;;;;;4990468;28;20660;-70
2023/10/23 03:07:42;;;;;;;1.48;0.30;;;10.30;99.90;;;;;;4988799;28;20056;-70
2023/10/23 03:10:08;;;;;;;1.50;0.38;;;10.30;99.90;;;;;;4980254;28;20495;-70
2023/10/23 03:12:35;;;;;;;3.03;0.70;;;10.30;99.90;;;;;;4985598;28;20041;-70
2023/10/23 03:15:03;;;;;;;0.50;0.40;;;10.20;99.90;;;;;;4990323;28;20065;-71
2023/10/23 03:17:30;;;;;;;1.05;0.47;;;10.10;99.90;;;;;;4990239;28;20046;-68
2023/10/23 03:19:56;;;;;;;1.00;0.35;;;10.00;99.90;;;;;;4992408;28;20570;-69
2023/10/23 03:22:22;;;;;;;1.80;0.25;;;10.00;99.90;;;;;;4989467;28;20109;-69
2023/10/23 03:24:47;;;;;;;1.77;0.88;;;10.00;99.90;;;;;;4995997;28;20048;-68
2023/10/23 03:27:13;;;;;;;4.20;0.30;;;10.00;99.90;;;;;;4986662;28;20089;-68
2023/10/23 03:29:42;;;;;;;0.52;0.50;;;10.00;99.90;;;;;;4990928;28;20442;-68
2023/10/23 03:32:08;;;;;;;0.70;0.57;;;10.00;99.90;;;;;;4988574;28;20038;-68
2023/10/23 03:34:33;;;;;;;2.85;0.32;;;10.10;99.90;;;;;;4990337;28;20102;-68
2023/10/23 03:36:59;;;;;;;0.88;0.40;;;10.20;99.90;;;;;;4991848;28;20126;-68
2023/10/23 03:39:25;;;;;;;0.30;0.30;;;10.10;99.90;;;;;;4987911;28;20053;-68
2023/10/23 03:41:50;;;;;;;1.42;0.47;;;10.10;99.90;;;;;;4983320;28;20073;-68
2023/10/23 03:44:16;;;;;;;3.10;0.52;;;10.20;99.90;;;;;;4992172;28;20515;-68
2023/10/23 03:46:41;;;;;;;2.35;1.13;;;10.30;99.90;;;;;;4986006;28;20053;-68
2023/10/23 03:49:07;;;;;;;9.75;6.05;;;10.30;99.90;;;;;;4976966;28;20691;-68
2023/10/23 03:51:33;;;;;;;7.95;6.13;;;10.20;99.90;;;;;;4985115;28;20092;-70
2023/10/23 03:53:59;;;;;;;16.70;11.60;;;10.20;99.90;;;;;;4992638;28;20416;-68
2023/10/23 03:56:24;;;;;;;12.40;9.48;;;10.10;99.90;;;;;;4987782;28;20089;-68
2023/10/23 03:58:50;;;;;;;7.95;5.75;;;10.10;99.90;;;;;;4984656;28;20045;-68
2023/10/23 04:01:16;;;;;;;5.60;4.45;;;10.10;99.90;;;;;;4980275;28;20115;-68
2023/10/23 04:03:41;;;;;;;6.82;5.65;;;10.10;99.90;;;;;;4986535;28;20030;-68
2023/10/23 04:06:07;;;;;;;6.68;4.53;;;10.10;99.90;;;;;;4984990;28;20050;-68
2023/10/23 04:08:33;;;;;;;4.88;3.22;;;10.10;99.90;;;;;;4989444;28;20050;-68
2023/10/23 04:10:59;;;;;;;3.70;3.28;;;10.00;99.90;;;;;;4986395;28;20033;-68
2023/10/23 04:13:25;;;;;;;4.63;2.58;;;10.00;99.90;;;;;;4983878;28;20066;-70
2023/10/23 04:16:02;;;;;;;2.35;1.60;;;9.90;99.90;;;;;;4984203;28;20048;-70
2023/10/23 04:18:28;;;;;;;6.53;3.50;;;10.00;99.90;;;;;;5003294;28;20046;-70
2023/10/23 04:21:07;;;;;;;6.20;3.45;;;9.90;99.90;;;;;;4988301;28;20418;-70
2023/10/23 04:23:33;;;;;;;6.10;3.08;;;9.90;99.90;;;;;;4988318;28;20030;-70
2023/10/23 04:25:59;;;;;;;4.97;3.03;;;9.90;99.90;;;;;;4990264;28;20140;-70
2023/10/23 04:28:25;;;;;;;4.60;3.92;;;9.90;99.90;;;;;;4990718;28;20037;-70
2023/10/23 04:30:51;;;;;;;8.30;6.97;;;9.90;99.90;;;;;;4970436;28;20052;-68
2023/10/23 04:33:21;;;;;;;8.38;6.57;;;9.90;99.90;;;;;;4983829;28;20030;-68
2023/10/23 04:35:49;;;;;;;11.57;6.47;;;9.90;99.90;;;;;;4985211;28;20543;-68
2023/10/23 04:38:15;;;;;;;8.73;7.25;;;10.00;99.90;;;;;;4989789;28;20538;-68
2023/10/23 04:40:42;;;;;;;4.18;3.30;;;10.00;99.90;;;;;;4982763;28;20117;-68
2023/10/23 04:43:07;;;;;;;6.00;2.67;;;10.10;99.90;;;;;;4983798;28;20488;-68
2023/10/23 04:45:35;;;;;;;1.73;1.60;;;10.10;99.90;;;;;;4983415;28;20048;-68
2023/10/23 04:48:00;;;;;;;3.72;3.42;;;10.00;99.90;;;;;;4990628;28;20050;-71
2023/10/23 04:50:26;;;;;;;1.23;0.80;;;10.10;99.90;;;;;;4985958;28;20053;-68
2023/10/23 04:52:51;;;;;;;0.90;0.70;;;10.00;99.90;;;;;;4978165;28;20046;-68
2023/10/23 04:55:17;;;;;;;1.02;0.40;;;10.00;99.90;;;;;;4990188;28;20033;-68
2023/10/23 04:57:43;;;;;;;1.15;0.90;;;9.90;99.90;;;;;;4982770;28;20042;-68
2023/10/23 05:00:09;;;;;;;4.03;1.50;;;9.80;99.90;;;;;;5009496;28;20034;-68
2023/10/23 05:02:34;;;;;;;2.05;1.55;;;9.80;99.90;;;;;;5008913;28;20039;-68
2023/10/23 05:05:00;;;;;;;3.40;2.13;;;9.80;99.90;;;;;;5007199;28;20410;-70
2023/10/23 05:07:25;;;;;;;1.77;1.50;;;9.80;99.90;;;;;;5011635;28;20060;-70
2023/10/23 05:09:51;;;;;;;2.30;1.38;;;9.80;99.90;;;;;;5007822;28;20053;-70
2023/10/23 05:12:17;;;;;;;2.50;1.48;;;9.80;99.90;;;;;;5012271;28;20046;-70
2023/10/23 05:14:43;;;;;;;2.28;1.70;;;9.80;99.90;;;;;;5009973;28;20029;-70
2023/10/23 05:17:09;;;;;;;1.98;1.70;;;9.90;99.90;;;;;;5009808;28;20103;-70
2023/10/23 05:19:34;;;;;;;2.13;1.70;;;9.90;99.90;;;;;;5008383;28;20041;-70
2023/10/23 05:22:00;;;;;;;3.08;2.38;;;9.90;99.90;;;;;;5012946;28;20099;-70
2023/10/23 05:24:26;;;;;;;3.33;2.05;;;10.00;99.90;;;;;;5010068;28;20040;-70
2023/10/23 05:26:51;;;;;;;3.75;1.90;;;10.10;99.90;;;;;;5013045;28;20049;-70
2023/10/23 05:29:17;;;;;;;1.88;1.60;;;10.10;99.90;;;;;;5011544;28;20060;-70
2023/10/23 05:31:42;;;;;;;2.00;1.65;;;10.10;99.90;;;;;;5014350;28;20041;-70
2023/10/23 05:34:08;;;;;;;2.10;0.90;;;10.00;99.90;;;;;;5013425;28;20216;-70
2023/10/23 05:36:34;;;;;;;1.00;0.43;;;10.00;99.90;;;;;;5011029;28;20072;-70
2023/10/23 05:38:59;;;;;;;1.10;0.50;;;10.00;99.90;;;;;;5017593;28;20044;-70
2023/10/23 05:41:25;;;;;;;1.05;0.60;;;10.10;99.90;;;;;;5013744;28;20029;-70
2023/10/23 05:43:50;;;;;;;5.00;0.70;;;10.10;99.90;;;;;;5011607;28;20059;-70
2023/10/23 05:46:20;;;;;;;1.85;0.30;;;10.10;99.90;;;;;;4998119;28;20065;-70
2023/10/23 05:48:46;;;;;;;1.90;0.98;;;10.10;99.90;;;;;;5018758;28;20607;-70
2023/10/23 05:51:12;;;;;;;0.90;0.85;;;10.20;99.90;;;;;;5015718;28;20038;-70
2023/10/23 05:53:37;;;;;;;1.80;0.98;;;10.20;99.90;;;;;;5013811;28;20049;-70
2023/10/23 05:56:06;;;;;;;2.08;0.88;;;10.20;99.90;;;;;;5012993;28;20042;-70
2023/10/23 05:58:33;;;;;;;1.27;1.08;;;10.20;99.90;;;;;;5018284;28;20409;-70
2023/10/23 06:01:12;;;;;;;1.33;0.65;;;10.30;99.90;;;;;;5010515;28;21001;-70
2023/10/23 06:03:38;;;;;;;2.20;0.93;;;10.20;99.90;;;;;;5015540;28;20037;-68
2023/10/23 06:06:04;;;;;;;1.38;1.13;;;10.30;99.90;;;;;;5013721;28;20095;-68
2023/10/23 06:08:30;;;;;;;2.20;1.08;;;10.30;99.90;;;;;;5014962;28;20026;-68
2023/10/23 06:10:56;;;;;;;0.80;0.80;;;10.20;99.90;;;;;;4992614;28;20072;-68
2023/10/23 06:13:21;;;;;;;4.68;1.02;;;10.20;99.90;;;;;;5007438;28;20037;-68
2023/10/23 06:15:48;;;;;;;1.67;1.00;;;10.30;99.90;;;;;;5008999;28;20037;-68
2023/10/23 06:18:14;;;;;;;1.73;1.00;;;10.30;99.90;;;;;;5010553;28;20052;-68
2023/10/23 06:20:39;;;;;;;1.95;1.75;;;10.30;99.90;;;;;;5011556;28;20466;-70
2023/10/23 06:23:05;;;;;;;1.65;0.95;;;10.50;99.90;;;;;;5010339;28;20034;-70
2023/10/23 06:25:31;;;;;;;2.47;1.10;;;10.60;99.90;;;;;;5015928;28;20033;-70
2023/10/23 06:27:57;;;;;;;1.50;1.20;;;10.60;99.90;;;;;;4999945;28;20509;-70
2023/10/23 06:30:23;;;;;;;5.22;1.40;;;10.70;99.90;;;;;;4998802;28;20041;-70
2023/10/23 06:32:49;;;;;;;1.73;1.30;;;10.70;99.90;;;;;;5009946;28;20068;-70
2023/10/23 06:35:18;;;;;;;1.02;0.82;;;10.80;99.90;;;;;;5006666;28;20806;-71
2023/10/23 06:37:44;;;;;;;2.08;1.13;;;10.90;99.90;;;;;;5010160;28;20065;-70
2023/10/23 06:40:10;;;;;;;1.73;1.30;;;10.90;99.90;;;;;;5019710;28;20062;-67
2023/10/23 06:42:36;;;;;;;2.78;1.65;;;11.00;99.90;;;;;;5012562;28;20048;-68
2023/10/23 06:45:01;;;;;;;3.25;1.70;;;11.00;99.90;;;;;;5012181;28;20053;-68
2023/10/23 06:47:27;;;;;;;2.28;1.50;;;11.10;99.90;;;;;;5009497;28;20069;-68
2023/10/23 06:49:53;;;;;;;1.20;1.10;;;11.10;99.90;;;;;;5015905;28;20041;-68
2023/10/23 06:52:18;;;;;;;2.97;1.42;;;11.20;99.90;;;;;;5011378;28;20044;-67
2023/10/23 06:54:44;;;;;;;4.60;1.33;;;11.30;99.90;;;;;;5012485;28;20041;-67
2023/10/23 06:57:10;;;;;;;1.15;1.02;;;11.30;99.90;;;;;;5007931;28;20060;-70
2023/10/23 06:59:38;;;;;;;1.42;0.90;;;11.40;99.90;;;;;;5007144;28;21863;-70
2023/10/23 07:02:04;;;;;;;6.15;1.40;;;11.40;99.90;;;;;;4994730;28;20556;-69
2023/10/23 07:04:29;;;;;;;3.28;1.10;;;11.50;99.90;;;;;;5006032;28;20053;-71
2023/10/23 07:06:56;;;;;;;4.50;2.10;;;11.60;99.90;;;;;;5008384;28;20051;-69
2023/10/23 07:09:22;;;;;;;4.57;1.77;;;11.80;99.90;;;;;;5004701;28;20056;-68
2023/10/23 07:11:51;;;;;;;2.22;1.10;;;11.90;99.90;;;;;;5005361;28;20068;-71
2023/10/23 07:14:17;;;;;;;4.95;1.35;;;12.10;99.90;;;;;;5007913;28;21682;-71
2023/10/23 07:16:43;;;;;;;2.50;1.02;;;12.20;99.90;;;;;;5011396;28;20108;-67
2023/10/23 07:19:10;;;;;;;3.40;1.17;;;12.40;99.90;;;;;;5009712;28;20171;-67
2023/10/23 07:21:37;;;;;;;4.85;0.98;;;12.60;99.90;;;;;;5008319;28;20045;-68
2023/10/23 07:24:02;;;;;;;3.83;1.30;;;12.80;99.90;;;;;;5014317;28;20078;-68
2023/10/23 07:26:28;;;;;;;4.95;0.95;;;13.00;99.90;;;;;;4997697;28;20565;-68
2023/10/23 07:28:54;;;;;;;2.25;0.77;;;13.10;99.90;;;;;;5012343;28;20037;-67
2023/10/23 07:31:20;;;;;;;1.77;0.70;;;13.30;99.90;;;;;;5002476;28;21018;-67
2023/10/23 07:33:45;;;;;;;3.38;1.63;;;13.40;99.90;;;;;;5003466;28;20120;-70
2023/10/23 07:36:13;;;;;;;2.70;1.08;;;13.50;99.90;;;;;;5010041;28;20045;-70
2023/10/23 07:38:41;;;;;;;5.40;3.63;;;13.60;99.90;;;;;;4987451;28;20033;-69
2023/10/23 07:41:07;;;;;;;3.70;2.83;;;13.50;99.90;;;;;;5010213;28;20107;-69
2023/10/23 07:43:33;;;;;;;3.10;2.08;;;13.50;99.90;;;;;;5009001;28;20041;-71
2023/10/23 07:46:07;;;;;;;4.72;1.95;;;13.40;99.90;;;;;;5007021;28;20033;-71
2023/10/23 07:48:33;;;;;;;5.20;1.67;;;13.50;99.90;;;;;;5007304;28;20072;-71
2023/10/23 07:50:59;;;;;;;6.70;1.70;;;13.50;99.90;;;;;;5009072;28;20621;-63
2023/10/23 07:53:28;;;;;;;2.45;1.67;;;13.60;99.90;;;;;;5005539;28;20638;-64
2023/10/23 07:55:54;;;;;;;0.75;0.75;;;13.70;99.90;;;;;;4996540;28;20049;-64
2023/10/23 07:58:20;;;;;;;4.25;2.28;;;13.80;99.90;;;;;;5002768;28;20046;-65
2023/10/23 08:00:45;;;;;;;1.60;1.00;;;14.00;99.90;;;;;;5000679;28;20035;-63
2023/10/23 08:03:11;;;;;;;1.63;0.88;;;14.20;99.90;;;;;;5000137;28;21275;-64
2023/10/23 08:05:37;;;;;;;2.05;1.08;;;14.40;99.90;;;;;;5014326;28;20041;-64
2023/10/23 08:08:06;;;;;;;8.15;3.30;;;14.60;99.90;;;;;;5007910;28;20056;-63
2023/10/23 08:10:31;;;;;;;2.13;1.60;;;14.70;99.90;;;;;;5010442;28;20042;-69
2023/10/23 08:12:57;;;;;;;5.43;2.80;;;14.80;99.90;;;;;;5011902;28;20399;-70
2023/10/23 08:15:23;;;;;;;6.22;3.05;;;14.90;99.90;;;;;;5001155;28;20128;-70
2023/10/23 08:17:50;;;;;;;4.05;1.60;;;15.00;99.90;;;;;;5010095;28;20107;-70
2023/10/23 08:20:17;;;;;;;4.15;1.63;;;15.20;99.90;;;;;;5009345;28;20042;-70
2023/10/23 08:22:43;;;;;;;3.78;1.35;;;15.50;99.90;;;;;;5005680;28;20102;-68
2023/10/23 08:25:08;;;;;;;1.85;1.70;;;15.70;99.90;;;;;;4998347;28;20038;-68
2023/10/23 08:27:34;;;;;;;2.45;2.20;;;15.80;99.90;;;;;;4991350;28;20052;-63
2023/10/23 08:30:00;;;;;;;3.75;2.35;;;15.90;99.90;;;;;;5009031;28;20506;-63
2023/10/23 08:32:25;;;;;;;1.40;0.80;;;16.00;99.90;;;;;;5006787;28;20033;-62
2023/10/23 08:34:53;;;;;;;4.22;1.10;;;16.10;99.90;;;;;;5006957;28;20040;-63
2023/10/23 08:37:20;;;;;;;2.97;1.25;;;16.30;99.90;;;;;;5006824;28;20121;-64
2023/10/23 08:39:45;;;;;;;1.15;0.80;;;16.40;99.90;;;;;;5011640;28;20481;-62
2023/10/23 08:42:11;;;;;;;10.45;1.25;;;16.50;99.90;;;;;;5014054;28;20279;-70
2023/10/23 08:44:37;;;;;;;3.35;0.70;;;16.50;99.90;;;;;;5015684;28;20051;-66
2023/10/23 08:47:03;;;;;;;4.47;1.17;;;16.60;99.90;;;;;;5013656;28;20172;-68
2023/10/23 08:49:29;;;;;;;1.20;0.80;;;16.70;99.90;;;;;;5016922;28;20029;-70
2023/10/23 08:51:59;;;;;;;1.38;0.70;;;16.70;99.90;;;;;;5009586;28;20041;-69
2023/10/23 08:54:27;;;;;;;1.67;0.80;;;16.50;99.90;;;;;;5011972;28;20374;-71
2023/10/23 08:57:00;;;;;;;2.03;1.08;;;16.70;99.90;;;;;;5014106;28;20490;-72
2023/10/23 08:59:25;;;;;;;1.52;0.73;;;16.90;99.90;;;;;;4993513;28;20047;-72
2023/10/23 09:01:51;;;;;;;2.33;0.80;;;17.10;99.90;;;;;;4984896;28;20056;-70
2023/10/23 09:04:17;;;;;;;0.77;0.52;;;17.20;99.90;;;;;;4988748;28;20038;-73
2023/10/23 09:06:43;;;;;;;2.63;1.00;;;17.30;99.90;;;;;;4989056;28;20030;-72
2023/10/23 09:09:09;;;;;;;2.60;0.68;;;17.40;99.90;;;;;;4995328;28;20045;-69
2023/10/23 09:11:45;;;;;;;3.90;1.10;;;17.50;99.90;;;;;;4993368;28;20141;-70
2023/10/23 09:14:32;;;;;;;1.10;0.65;;;17.60;99.90;;;;;;4995632;28;20072;-70
2023/10/23 09:16:59;;;;;;;5.10;1.33;;;17.70;99.90;;;;;;4996614;28;20042;-70
2023/10/23 09:19:36;;;;;;;3.38;0.98;;;17.80;99.90;;;;;;4983048;28;20062;-71
2023/10/23 09:22:11;;;;;;;2.05;0.88;;;18.00;99.90;;;;;;5011606;28;20045;-70
2023/10/23 09:24:37;;;;;;;1.27;0.90;;;18.10;99.90;;;;;;4996776;28;20040;-66
2023/10/23 09:27:03;;;;;;;1.30;0.82;;;17.90;99.90;;;;;;4994207;28;20046;-66
2023/10/23 09:29:29;;;;;;;2.40;0.70;;;17.80;99.90;;;;;;4987811;28;20046;-65
2023/10/23 09:31:59;;;;;;;1.48;0.88;;;17.80;99.90;;;;;;4993653;28;20049;-66
2023/10/23 09:34:25;;;;;;;1.35;0.60;;;17.90;99.90;;;;;;4992985;28;20038;-66
2023/10/23 09:36:51;;;;;;;2.25;0.60;;;18.00;99.90;;;;;;4992144;28;20471;-66
2023/10/23 09:39:18;;;;;;;2.30;0.80;;;18.10;99.90;;;;;;4996166;28;20060;-65
2023/10/23 09:41:47;;;;;;;0.88;0.70;;;18.10;99.90;;;;;;4991982;28;20042;-74
2023/10/23 09:44:14;;;;;;;1.85;0.60;;;18.10;99.90;;;;;;4990238;28;20811;-73
2023/10/23 09:46:42;;;;;;;2.47;0.98;;;18.00;99.90;;;;;;4992206;28;20042;-73
2023/10/23 09:49:09;;;;;;;0.75;0.63;;;17.90;99.90;;;;;;4990817;28;20041;-72
2023/10/23 09:51:40;;;;;;;1.00;0.70;;;17.90;99.90;;;;;;4988962;28;20042;-72
2023/10/23 09:54:08;;;;;;;7.50;3.10;;;18.00;99.90;;;;;;4994613;28;20062;-73
2023/10/23 09:56:35;;;;;;;4.40;0.98;;;18.00;99.90;;;;;;4996577;28;20053;-73
2023/10/23 09:59:05;;;;;;;0.80;0.60;;;18.00;99.90;;;;;;4994958;28;20053;-74
2023/10/23 10:01:40;;;;;;;0.80;0.80;;;18.00;99.90;;;;;;4996716;28;20182;-65
2023/10/23 10:04:31;;;;;;;4.07;0.77;;;17.90;99.90;;;;;;4994437;28;20695;-69
2023/10/23 10:07:06;;;;;;;2.50;0.80;;;17.80;99.90;;;;;;4992191;28;20424;-69
2023/10/23 10:09:32;;;;;;;0.95;0.70;;;17.90;99.90;;;;;;5002419;28;20030;-66
2023/10/23 10:11:59;;;;;;;2.85;0.80;;;18.00;99.90;;;;;;4976282;28;20146;-67
2023/10/23 10:14:27;;;;;;;0.98;0.63;;;18.10;99.90;;;;;;4989825;28;20038;-67
2023/10/23 10:16:57;;;;;;;2.13;1.00;;;18.10;99.90;;;;;;4982253;28;20037;-66
2023/10/23 10:19:26;;;;;;;2.88;1.02;;;18.20;99.90;;;;;;4991967;28;20041;-66
2023/10/23 10:22:14;;;;;;;1.23;0.60;;;18.20;99.90;;;;;;4970814;28;20068;-72
2023/10/23 10:24:41;;;;;;;2.08;0.60;;;18.30;99.90;;;;;;5010375;28;20053;-73
2023/10/23 10:27:07;;;;;;;3.13;0.85;;;18.40;99.90;;;;;;4990466;28;20046;-72
2023/10/23 10:29:33;;;;;;;1.88;0.75;;;18.40;99.90;;;;;;4978805;28;20053;-73
2023/10/23 10:32:05;;;;;;;2.35;0.60;;;18.40;99.90;;;;;;4988048;28;20509;-73
2023/10/23 10:34:31;;;;;;;;;;;18.50;99.90;;;;;;4993914;28;20033;-73
2023/10/23 10:36:57;;;;;;;1.70;0.95;;;18.60;99.90;;;;;;4984251;28;19917;-73
2023/10/23 10:39:53;;;;;;;3.78;0.90;;;18.60;99.90;;;;;;4989885;28;20658;-72
2023/10/23 10:42:22;;;;;;;1.23;0.70;;;18.60;99.90;;;;;;4994063;28;20107;-74
2023/10/23 10:44:59;;;;;;;1.60;1.00;;;18.60;99.90;;;;;;4988917;28;20030;-71
2023/10/23 10:47:44;;;;;;;4.07;1.00;;;18.70;99.90;;;;;;4988742;28;20059;-71
2023/10/23 10:50:10;;;;;;;1.63;0.80;;;18.80;99.90;;;;;;4989158;28;20042;-73
2023/10/23 10:52:45;;;;;;;0.75;0.75;;;19.00;99.90;;;;;;4986453;28;20030;-71
2023/10/23 10:55:12;;;;;;;1.88;0.60;;;19.10;99.90;;;;;;4991822;28;20034;-72
2023/10/23 10:57:43;;;;;;;1.38;0.60;;;19.30;99.90;;;;;;4987195;28;20034;-66
2023/10/23 11:00:12;;;;;;;2.60;0.93;;;19.40;99.90;;;;;;4991458;28;20076;-65
2023/10/23 11:02:39;;;;;;;2.50;1.08;;;19.60;99.90;;;;;;4988522;28;20042;-66
2023/10/23 11:05:12;;;;;;;1.58;0.85;;;19.80;99.90;;;;;;4988218;28;20022;-66
2023/10/23 11:07:37;;;;;;;1.13;0.73;;;19.90;99.90;;;;;;4985470;28;20098;-66
2023/10/23 11:10:05;;;;;;;1.17;0.32;;;20.00;99.90;;;;;;4989686;28;20576;-66
2023/10/23 11:12:31;;;;;;;7.38;0.90;;;20.20;99.90;;;;;;4996542;28;20072;-65
2023/10/23 11:14:57;;;;;;;1.60;0.40;;;20.30;99.90;;;;;;4991806;28;20046;-64
2023/10/23 11:17:23;;;;;;;1.13;0.50;;;20.40;99.90;;;;;;4991817;28;20045;-65
2023/10/23 11:19:49;;;;;;;1.17;0.60;;;20.40;99.90;;;;;;5005384;28;20050;-66
2023/10/23 11:22:18;;;;;;;2.10;0.70;;;20.50;99.90;;;;;;4996467;28;20665;-68
2023/10/23 11:24:45;;;;;;;3.38;0.77;;;20.50;99.90;;;;;;4991044;28;22419;-68
2023/10/23 11:27:10;;;;;;;2.53;0.70;;;20.60;99.90;;;;;;4992279;28;20491;-67
2023/10/23 11:29:47;;;;;;;2.97;0.47;;;20.50;99.90;;;;;;4993629;28;20033;-67
2023/10/23 11:32:14;;;;;;;3.97;0.80;;;20.50;99.90;;;;;;4983421;28;20086;-68
2023/10/23 11:34:40;;;;;;;3.20;1.00;;;20.60;99.90;;;;;;4992679;28;20044;-73
2023/10/23 11:37:08;;;;;;;2.42;0.93;;;20.60;99.90;;;;;;4988928;28;20034;-72
2023/10/23 11:39:36;;;;;;;1.00;0.50;;;20.70;99.90;;;;;;4993460;28;20046;-72
2023/10/23 11:42:02;;;;;;;2.70;1.65;;;20.70;99.90;;;;;;4989985;28;20127;-70
2023/10/23 11:44:29;;;;;;;1.77;1.17;;;20.70;99.90;;;;;;4994075;28;20038;-71
2023/10/23 11:46:57;;;;;;;2.88;0.80;;;20.80;99.90;;;;;;4989620;28;20320;-72
2023/10/23 11:49:23;;;;;;;1.77;0.70;;;20.80;99.90;;;;;;4991763;28;20054;-70
2023/10/23 11:51:50;;;;;;;2.97;0.75;;;20.80;99.90;;;;;;4997062;28;20627;-67
2023/10/23 11:54:17;;;;;;;0.55;0.50;;;20.80;99.90;;;;;;4993087;28;20033;-68
2023/10/23 11:56:44;;;;;;;9.48;4.30;;;20.90;99.90;;;;;;4991680;28;20837;-67
2023/10/23 11:59:17;;;;;;;4.93;3.03;;;20.80;99.90;;;;;;5015739;28;20140;-68
2023/10/23 12:01:44;;;;;;;5.93;2.22;;;20.80;99.90;;;;;;5009032;28;20127;-68
2023/10/23 12:04:10;;;;;;;2.75;1.70;;;20.70;99.90;;;;;;5004904;28;20049;-68
2023/10/23 12:06:37;;;;;;;3.17;1.55;;;20.60;99.90;;;;;;5002072;28;20393;-68
2023/10/23 12:09:05;;;;;;;1.60;1.00;;;20.50;99.90;;;;;;5002106;28;20049;-67
2023/10/23 12:11:31;;;;;;;1.38;1.20;;;20.60;99.90;;;;;;5006243;28;20128;-73
2023/10/23 12:13:59;;;;;;;2.40;0.93;;;20.50;99.90;;;;;;4984426;28;20521;-73
2023/10/23 12:16:25;;;;;;;3.10;0.90;;;20.30;99.90;;;;;;5005329;28;20057;-72
2023/10/23 12:18:51;;;;;;;3.22;1.10;;;20.30;99.90;;;;;;5000425;28;21046;-71
2023/10/23 12:21:16;;;;;;;3.40;1.63;;;20.10;99.90;;;;;;5019420;28;20058;-71
2023/10/23 12:23:42;;;;;;;2.72;2.00;;;20.10;99.90;;;;;;5004888;28;20042;-71
2023/10/23 12:26:08;;;;;;;4.05;1.38;;;20.10;99.90;;;;;;5005643;28;20111;-70
2023/10/23 12:28:34;;;;;;;1.98;1.00;;;20.30;99.90;;;;;;4991567;28;20134;-70
2023/10/23 12:31:00;;;;;;;2.25;0.65;;;20.30;99.90;;;;;;5002782;28;20034;-72
2023/10/23 12:33:26;;;;;;;2.67;1.13;;;20.30;99.90;;;;;;5015316;28;20044;-71
2023/10/23 12:35:51;;;;;;;1.92;0.68;;;20.30;99.90;;;;;;5006281;28;20041;-71
2023/10/23 12:38:18;;;;;;;0.43;0.40;;;20.30;99.90;;;;;;5013718;28;20034;-71
2023/10/23 12:40:44;;;;;;;1.98;0.82;;;20.50;99.90;;;;;;5007113;28;20053;-72
2023/10/23 12:43:10;;;;;;;1.85;0.60;;;20.50;99.90;;;;;;5011693;28;20033;-73
2023/10/23 12:45:35;;;;;;;1.65;0.65;;;20.60;99.90;;;;;;4993206;28;20037;-67